createdAt,value
2023-05-23T00:01:55.285Z,89.66
2023-05-23T00:04:27.309Z,90.39
2023-05-23T00:06:54.559Z,90.13
2023-05-23T00:09:21.716Z,89.98
2023-05-23T00:11:48.756Z,89.68
2023-05-23T00:14:16.007Z,89.77
2023-05-23T00:16:45.046Z,89.42
2023-05-23T00:19:15.082Z,88.99
2023-05-23T00:21:49.925Z,89.21
2023-05-23T00:24:19.113Z,89.64
2023-05-23T00:26:47.177Z,89.70
2023-05-23T00:29:18.466Z,89.83
2023-05-23T00:31:48.913Z,89.33
2023-05-23T00:34:19.718Z,89.51
2023-05-23T00:36:50.636Z,89.40
2023-05-23T00:39:21.196Z,89.36
2023-05-23T00:41:53.307Z,89.30
2023-05-23T00:44:22.129Z,89.08
2023-05-23T00:46:57.021Z,89.32
2023-05-23T00:49:24.795Z,89.25
2023-05-23T00:51:52.714Z,89.22
2023-05-23T00:54:29.655Z,89.37
2023-05-23T00:56:56.949Z,89.11
2023-05-23T00:59:27.603Z,89.21
2023-05-23T01:01:57.003Z,89.15
2023-05-23T01:04:26.668Z,89.81
2023-05-23T01:06:57.934Z,89.46
2023-05-23T01:12:25.119Z,89.57
2023-05-23T01:15:09.004Z,89.75
2023-05-23T01:17:50.930Z,90.04
2023-05-23T01:20:29.725Z,90.24
2023-05-23T01:23:00.522Z,90.50
2023-05-23T01:25:46.779Z,90.32
2023-05-23T01:28:19.670Z,90.32
2023-05-23T01:30:52.479Z,90.60
2023-05-23T01:33:21.168Z,91.07
2023-05-23T01:35:49.019Z,90.76
2023-05-23T01:38:16.067Z,90.83
2023-05-23T01:40:43.304Z,91.29
2023-05-23T01:43:10.987Z,91.13
2023-05-23T01:45:38.055Z,91.24
2023-05-23T01:48:06.457Z,91.32
2023-05-23T01:50:34.207Z,91.22
2023-05-23T01:53:01.645Z,91.07
2023-05-23T01:55:29.365Z,91.05
2023-05-23T01:57:57.883Z,91.08
2023-05-23T02:00:25.755Z,90.91
2023-05-23T02:02:53.059Z,91.48
2023-05-23T02:05:20.201Z,90.66
2023-05-23T02:07:47.206Z,90.09
2023-05-23T02:10:14.371Z,89.02
2023-05-23T02:12:41.425Z,88.33
2023-05-23T02:15:09.383Z,88.42
2023-05-23T02:17:36.832Z,88.41
2023-05-23T02:20:04.261Z,88.72
2023-05-23T02:22:31.426Z,88.25
2023-05-23T02:24:58.509Z,88.54
2023-05-23T02:27:25.553Z,88.90
2023-05-23T02:29:52.537Z,89.38
2023-05-23T02:32:19.539Z,89.84
2023-05-23T02:34:50.600Z,89.53
2023-05-23T02:37:17.704Z,89.96
2023-05-23T02:39:44.810Z,89.77
2023-05-23T02:42:11.991Z,89.48
2023-05-23T02:44:39.228Z,89.88
2023-05-23T02:47:07.638Z,89.42
2023-05-23T02:49:34.873Z,89.53
2023-05-23T02:52:02.153Z,89.67
2023-05-23T02:54:29.457Z,88.98
2023-05-23T02:56:57.034Z,88.88
2023-05-23T02:59:24.265Z,89.07
2023-05-23T03:01:51.340Z,89.55
2023-05-23T03:04:18.665Z,88.99
2023-05-23T03:06:45.757Z,89.08
2023-05-23T03:09:12.773Z,89.39
2023-05-23T03:11:40.507Z,89.18
2023-05-23T03:14:07.563Z,89.68
2023-05-23T03:16:34.642Z,89.48
2023-05-23T03:19:01.823Z,89.55
2023-05-23T03:21:29.841Z,89.17
2023-05-23T03:23:56.894Z,89.55
2023-05-23T03:26:24.038Z,89.66
2023-05-23T03:28:51.435Z,89.94
2023-05-23T03:31:19.934Z,89.76
2023-05-23T03:33:47.020Z,90.04
2023-05-23T03:36:14.055Z,90.32
2023-05-23T03:38:42.149Z,90.12
2023-05-23T03:41:09.148Z,89.89
2023-05-23T03:43:36.854Z,89.90
2023-05-23T03:46:04.015Z,90.00
2023-05-23T03:48:31.297Z,90.40
2023-05-23T03:50:58.351Z,90.46
2023-05-23T03:53:25.499Z,89.99
2023-05-23T03:55:54.100Z,90.39
2023-05-23T03:58:21.613Z,90.38
2023-05-23T04:00:53.361Z,90.32
2023-05-23T04:03:21.797Z,90.43
2023-05-23T04:05:50.810Z,90.80
2023-05-23T04:08:22.015Z,90.85
2023-05-23T04:10:50.876Z,90.91
2023-05-23T04:13:18.098Z,90.88
2023-05-23T04:15:46.052Z,90.32
2023-05-23T04:18:15.126Z,90.05
2023-05-23T04:20:43.064Z,90.07
2023-05-23T04:23:11.239Z,89.63
2023-05-23T04:25:41.520Z,88.88
2023-05-23T04:28:14.276Z,89.45
2023-05-23T04:30:42.815Z,88.71
2023-05-23T04:33:10.567Z,87.62
2023-05-23T04:35:41.049Z,87.93
2023-05-23T04:38:09.082Z,88.04
2023-05-23T04:40:36.602Z,87.83
2023-05-23T04:43:22.057Z,87.91
2023-05-23T04:45:55.189Z,86.94
2023-05-23T04:48:36.426Z,87.82
2023-05-23T04:51:06.682Z,87.32
2023-05-23T04:53:37.136Z,87.14
2023-05-23T04:56:04.348Z,86.50
2023-05-23T04:58:32.067Z,85.80
2023-05-23T05:01:03.972Z,85.90
2023-05-23T05:03:31.875Z,85.81
2023-05-23T05:05:59.193Z,85.67
2023-05-23T05:08:26.427Z,85.23
2023-05-23T05:10:55.538Z,85.24
2023-05-23T05:13:23.148Z,85.21
2023-05-23T05:15:53.019Z,85.06
2023-05-23T05:18:20.444Z,84.02
2023-05-23T05:20:47.722Z,83.57
2023-05-23T05:23:16.234Z,83.41
2023-05-23T05:25:43.396Z,84.29
2023-05-23T05:28:10.608Z,83.47
2023-05-23T05:30:46.482Z,83.55
2023-05-23T05:33:14.256Z,82.98
2023-05-23T05:35:41.787Z,83.07
2023-05-23T05:38:11.067Z,82.41
2023-05-23T05:40:39.802Z,81.94
2023-05-23T05:43:07.140Z,82.54
2023-05-23T05:45:34.986Z,80.73
2023-05-23T05:48:02.358Z,80.27
2023-05-23T05:50:30.106Z,80.65
2023-05-23T05:52:57.126Z,79.73
2023-05-23T05:55:24.465Z,78.83
2023-05-23T05:57:54.655Z,78.91
2023-05-23T06:00:22.693Z,78.95
2023-05-23T06:02:57.731Z,77.81
2023-05-23T06:05:39.509Z,77.05
2023-05-23T06:08:06.861Z,78.23
2023-05-23T06:10:34.183Z,77.04
2023-05-23T06:13:02.024Z,77.48
2023-05-23T06:15:30.632Z,77.14
2023-05-23T06:17:57.773Z,77.01
2023-05-23T06:20:26.023Z,75.41
2023-05-23T06:22:54.512Z,76.43
2023-05-23T06:25:21.917Z,73.33
2023-05-23T06:27:50.128Z,73.69
2023-05-23T06:30:17.362Z,75.07
2023-05-23T06:32:45.648Z,74.38
2023-05-23T06:35:12.689Z,75.18
2023-05-23T06:37:43.592Z,75.12
2023-05-23T06:40:11.542Z,74.88
2023-05-23T06:42:38.697Z,75.48
2023-05-23T06:45:18.269Z,74.99
2023-05-23T06:47:45.782Z,74.84
2023-05-23T06:50:12.999Z,73.75
2023-05-23T06:52:42.915Z,73.88
2023-05-23T06:55:14.580Z,73.81
2023-05-23T06:57:41.790Z,74.33
2023-05-23T07:00:09.495Z,73.34
2023-05-23T07:02:46.008Z,73.52
2023-05-23T07:05:13.178Z,72.48
2023-05-23T07:07:47.391Z,72.17
2023-05-23T07:10:15.195Z,70.49
2023-05-23T07:12:42.510Z,70.17
2023-05-23T07:15:11.864Z,70.49
2023-05-23T07:17:48.655Z,69.82
2023-05-23T07:20:16.228Z,69.95
2023-05-23T07:22:45.415Z,70.72
2023-05-23T07:25:12.526Z,70.72
2023-05-23T07:27:40.463Z,70.06
2023-05-23T07:30:09.922Z,69.48
2023-05-23T07:32:38.392Z,70.04
2023-05-23T07:35:07.557Z,68.88
2023-05-23T07:37:34.667Z,69.29
2023-05-23T07:40:01.789Z,70.69
2023-05-23T07:42:28.997Z,69.92
2023-05-23T07:44:56.165Z,68.89
2023-05-23T07:47:24.461Z,69.20
2023-05-23T07:49:53.296Z,69.29
2023-05-23T07:52:22.826Z,69.55
2023-05-23T07:54:49.944Z,68.67
2023-05-23T07:57:18.065Z,69.26
2023-05-23T07:59:45.608Z,68.48
2023-05-23T08:02:12.946Z,69.26
2023-05-23T08:04:41.430Z,68.36
2023-05-23T08:07:09.860Z,68.06
2023-05-23T08:09:57.119Z,69.01
2023-05-23T08:12:24.166Z,69.68
2023-05-23T08:15:00.094Z,68.92
2023-05-23T08:17:36.436Z,68.25
2023-05-23T08:20:05.404Z,68.62
2023-05-23T08:22:32.838Z,68.56
2023-05-23T08:24:59.988Z,68.78
2023-05-23T08:27:30.454Z,68.17
2023-05-23T08:30:04.061Z,67.49
2023-05-23T08:32:31.225Z,67.26
2023-05-23T08:34:58.760Z,67.90
2023-05-23T08:37:26.462Z,66.88
2023-05-23T08:39:53.567Z,68.03
2023-05-23T08:42:40.853Z,67.99
2023-05-23T08:45:10.442Z,66.80
2023-05-23T08:47:39.121Z,67.42
2023-05-23T08:50:08.489Z,65.36
2023-05-23T08:52:38.017Z,65.35
2023-05-23T08:55:06.241Z,65.90
2023-05-23T08:57:36.103Z,65.37
2023-05-23T09:00:20.298Z,65.83
2023-05-23T09:02:48.846Z,66.47
2023-05-23T09:05:36.267Z,67.16
2023-05-23T09:08:03.579Z,67.31
2023-05-23T09:10:30.782Z,67.73
2023-05-23T09:12:59.071Z,67.72
2023-05-23T09:15:27.548Z,67.45
2023-05-23T09:18:01.977Z,68.62
2023-05-23T09:20:30.875Z,69.21
2023-05-23T09:23:06.408Z,68.88
2023-05-23T09:25:35.326Z,68.29
2023-05-23T09:28:04.730Z,69.25
2023-05-23T09:30:34.699Z,67.71
2023-05-23T09:33:05.524Z,67.80
2023-05-23T09:35:34.247Z,68.52
2023-05-23T09:38:01.743Z,69.54
2023-05-23T09:40:33.719Z,69.15
2023-05-23T09:43:05.665Z,67.76
2023-05-23T10:17:37.755Z,69.87
2023-05-23T10:20:10.902Z,69.28
2023-05-23T10:22:38.861Z,67.25
2023-05-23T10:25:07.548Z,68.16
2023-05-23T10:27:34.625Z,68.72
2023-05-23T10:30:02.155Z,69.12
2023-05-23T10:32:31.596Z,70.73
2023-05-23T10:35:18.617Z,71.74
2023-05-23T10:38:09.436Z,73.61
2023-05-23T10:41:08.405Z,74.22
2023-05-23T10:43:48.042Z,75.86
2023-05-23T10:46:16.020Z,77.16
2023-05-23T10:48:44.671Z,82.81
2023-05-23T10:51:15.922Z,84.79
2023-05-23T10:53:47.129Z,83.28
2023-05-23T10:56:24.805Z,82.79
2023-05-23T10:58:55.673Z,86.49
2023-05-23T11:01:23.934Z,88.67
2023-05-23T11:03:55.669Z,89.19
2023-05-23T11:06:30.257Z,89.53
2023-05-23T11:09:13.585Z,88.78
2023-05-23T11:11:49.472Z,89.64
2023-05-23T11:14:17.104Z,87.94
2023-05-23T11:16:49.313Z,88.94
2023-05-23T11:19:19.376Z,87.87
2023-05-23T11:21:49.944Z,88.35
2023-05-23T11:24:17.844Z,86.47
2023-05-23T11:27:00.207Z,86.45
2023-05-23T11:29:29.201Z,84.77
2023-05-23T11:31:57.342Z,82.18
2023-05-23T11:34:27.165Z,80.17
2023-05-23T11:36:57.297Z,79.76
2023-05-23T11:39:24.455Z,80.03
2023-05-23T11:42:01.580Z,79.17
2023-05-23T11:44:29.074Z,79.55
2023-05-23T11:47:07.391Z,80.34
2023-05-23T11:49:38.291Z,80.65
2023-05-23T11:52:06.801Z,78.94
2023-05-23T11:54:33.955Z,79.74
2023-05-23T11:57:02.853Z,79.10
2023-05-23T11:59:30.087Z,77.99
2023-05-23T12:01:57.175Z,75.11
2023-05-23T12:04:26.040Z,72.32
2023-05-23T12:06:53.127Z,73.72
2023-05-23T12:09:20.225Z,72.26
2023-05-23T12:11:48.929Z,72.71
2023-05-23T12:14:17.909Z,71.16
2023-05-23T12:16:47.308Z,70.31
2023-05-23T12:19:17.300Z,68.34
2023-05-23T12:21:49.236Z,70.93
2023-05-23T12:24:19.962Z,69.17
2023-05-23T12:26:58.952Z,69.87
2023-05-23T12:29:35.224Z,68.99
2023-05-23T12:32:04.079Z,66.43
2023-05-23T12:34:31.350Z,63.97
2023-05-23T12:37:14.997Z,65.75
2023-05-23T12:39:46.435Z,66.19
2023-05-23T12:42:13.730Z,68.44
2023-05-23T12:44:43.908Z,69.31
2023-05-23T12:47:11.027Z,71.63
2023-05-23T12:49:38.984Z,76.21
2023-05-23T12:52:06.410Z,77.26
2023-05-23T12:54:33.462Z,77.19
2023-05-23T12:57:00.525Z,78.73
2023-05-23T12:59:27.574Z,79.66
2023-05-23T13:01:55.039Z,79.80
2023-05-23T13:04:22.272Z,78.09
2023-05-23T13:06:49.369Z,76.62
2023-05-23T13:09:16.942Z,74.48
2023-05-23T13:11:44.504Z,74.64
2023-05-23T13:14:11.567Z,75.89
2023-05-23T13:16:39.526Z,75.24
2023-05-23T13:19:07.216Z,75.23
2023-05-23T13:21:34.298Z,75.91
2023-05-23T13:24:01.360Z,76.70
2023-05-23T13:26:28.567Z,77.59
2023-05-23T13:28:55.891Z,75.14
2023-05-23T13:31:22.927Z,73.63
2023-05-23T13:33:50.013Z,70.10
2023-05-23T13:36:17.096Z,71.97
2023-05-23T13:38:44.250Z,72.98
2023-05-23T13:41:11.393Z,79.25
2023-05-23T13:43:38.428Z,79.99
2023-05-23T13:46:05.788Z,74.84
2023-05-23T13:48:32.914Z,68.87
2023-05-23T13:51:01.880Z,71.32
2023-05-23T13:53:28.951Z,70.71
2023-05-23T13:55:56.016Z,72.21
2023-05-23T13:58:23.068Z,75.38
2023-05-23T14:00:50.100Z,76.97
2023-05-23T14:03:19.475Z,75.42
2023-05-23T14:05:46.611Z,75.73
2023-05-23T14:08:14.223Z,76.03
2023-05-23T14:10:42.027Z,77.23
2023-05-23T14:13:09.435Z,77.75
2023-05-23T14:15:38.604Z,76.80
2023-05-23T14:18:05.969Z,78.35
2023-05-23T14:20:33.347Z,78.41
2023-05-23T14:23:00.398Z,77.21
2023-05-23T14:25:27.444Z,75.84
2023-05-23T14:27:54.656Z,74.86
2023-05-23T14:30:21.680Z,75.35
2023-05-23T14:32:49.046Z,75.55
2023-05-23T14:35:16.195Z,75.95
2023-05-23T14:37:43.216Z,74.41
2023-05-23T14:40:10.543Z,75.18
2023-05-23T14:42:38.002Z,75.78
2023-05-23T14:45:05.515Z,75.85
2023-05-23T14:47:32.771Z,75.29
2023-05-23T14:49:59.855Z,73.90
2023-05-23T14:52:26.939Z,73.18
2023-05-23T14:54:54.132Z,74.70
2023-05-23T14:57:21.156Z,75.82
2023-05-23T14:59:48.245Z,75.11
2023-05-23T15:02:15.457Z,74.52
2023-05-23T15:04:42.775Z,75.32
2023-05-23T15:07:09.803Z,74.69
2023-05-23T15:09:36.858Z,75.53
2023-05-23T15:12:05.495Z,74.75
2023-05-23T15:14:32.502Z,75.51
2023-05-23T15:17:07.802Z,76.57
2023-05-23T15:19:38.173Z,77.66
2023-05-23T15:22:05.971Z,76.95
2023-05-23T15:27:11.739Z,77.55
2023-05-23T15:29:46.412Z,80.53
2023-05-23T15:32:13.548Z,81.78
2023-05-23T15:34:40.751Z,80.70
2023-05-23T15:37:07.790Z,80.46
2023-05-23T15:39:35.119Z,81.89
2023-05-23T15:42:02.248Z,81.54
2023-05-23T15:44:29.382Z,81.00
2023-05-23T15:46:56.546Z,80.58
2023-05-23T15:49:26.836Z,82.06
2023-05-23T15:51:55.414Z,82.94
2023-05-23T15:54:23.045Z,83.71
2023-05-23T15:56:50.090Z,82.37
2023-05-23T15:59:17.121Z,81.54
2023-05-23T16:01:44.544Z,82.12
2023-05-23T16:04:11.836Z,82.90
2023-05-23T16:06:39.605Z,82.61
2023-05-23T16:09:06.853Z,81.02
2023-05-23T16:11:33.977Z,81.52
2023-05-23T16:14:01.091Z,83.49
2023-05-23T16:16:28.078Z,82.63
2023-05-23T16:18:55.903Z,82.89
2023-05-23T16:21:23.362Z,81.96
2023-05-23T16:23:50.753Z,83.23
2023-05-23T16:26:19.056Z,83.66
2023-05-23T16:28:46.069Z,82.10
2023-05-23T16:31:15.575Z,81.07
2023-05-23T16:33:46.117Z,80.75
2023-05-23T16:36:13.138Z,81.73
2023-05-23T16:38:40.253Z,81.96
2023-05-23T16:41:07.380Z,81.45
2023-05-23T16:43:34.995Z,80.67
2023-05-23T16:46:02.649Z,81.00
2023-05-23T16:48:29.677Z,82.19
2023-05-23T16:50:57.749Z,82.08
2023-05-23T16:53:25.028Z,80.87
2023-05-23T16:55:52.111Z,79.39
2023-05-23T16:58:21.195Z,80.57
2023-05-23T17:00:48.936Z,81.76
2023-05-23T17:03:16.354Z,81.34
2023-05-23T17:05:43.914Z,79.90
2023-05-23T17:08:11.455Z,79.89
2023-05-23T17:10:38.569Z,81.25
2023-05-23T17:13:05.901Z,81.79
2023-05-23T17:15:33.003Z,81.57
2023-05-23T17:18:00.184Z,80.16
2023-05-23T17:20:27.357Z,80.15
2023-05-23T17:22:55.119Z,80.58
2023-05-23T17:25:22.395Z,80.10
2023-05-23T17:27:49.409Z,79.56
2023-05-23T17:30:18.758Z,80.11
2023-05-23T17:32:47.117Z,79.50
2023-05-23T17:35:14.671Z,81.22
2023-05-23T17:37:43.749Z,81.70
2023-05-23T17:40:11.950Z,80.43
2023-05-23T17:42:42.717Z,80.74
2023-05-23T17:45:10.150Z,81.38
2023-05-23T17:47:37.238Z,81.73
2023-05-23T17:50:08.527Z,80.77
2023-05-23T17:52:35.912Z,81.26
2023-05-23T17:55:03.209Z,81.58
2023-05-23T17:57:31.255Z,82.14
2023-05-23T17:59:59.587Z,83.06
2023-05-23T18:02:29.382Z,82.00
2023-05-23T18:04:56.664Z,81.95
2023-05-23T18:07:23.772Z,82.35
2023-05-23T18:09:50.920Z,82.71
2023-05-23T18:12:18.104Z,82.65
2023-05-23T18:14:45.747Z,84.55
2023-05-23T18:17:13.177Z,85.40
2023-05-23T18:19:40.477Z,85.60
2023-05-23T18:22:07.667Z,86.18
2023-05-23T18:24:34.736Z,86.07
2023-05-23T18:27:03.133Z,84.44
2023-05-23T18:29:30.388Z,86.82
2023-05-23T18:31:57.675Z,85.16
2023-05-23T18:34:26.491Z,84.29
2023-05-23T18:36:54.914Z,84.19
2023-05-23T18:39:22.334Z,83.95
2023-05-23T18:41:49.462Z,84.31
2023-05-23T18:44:20.148Z,84.33
2023-05-23T18:46:48.041Z,83.87
2023-05-23T18:49:15.215Z,83.63
2023-05-23T18:51:42.876Z,83.47
2023-05-23T18:54:09.973Z,83.64
2023-05-23T18:56:37.051Z,84.32
2023-05-23T18:59:04.205Z,83.98
2023-05-23T19:01:31.249Z,84.31
2023-05-23T19:03:58.334Z,87.89
2023-05-23T19:06:25.524Z,86.59
2023-05-23T19:08:52.633Z,85.59
2023-05-23T19:11:19.741Z,84.43
2023-05-23T19:13:46.781Z,84.53
2023-05-23T19:16:13.868Z,88.71
2023-05-23T19:18:40.996Z,86.77
2023-05-23T19:21:07.985Z,86.12
2023-05-23T19:23:35.011Z,86.34
2023-05-23T19:26:02.277Z,88.82
2023-05-23T19:28:29.481Z,88.56
2023-05-23T19:30:56.589Z,86.60
2023-05-23T19:33:23.629Z,83.99
2023-05-23T19:35:51.669Z,83.89
2023-05-23T19:38:19.006Z,83.01
2023-05-23T19:40:47.711Z,84.78
2023-05-23T19:43:15.038Z,84.56
2023-05-23T19:45:42.226Z,83.98
2023-05-23T19:48:09.488Z,83.08
2023-05-23T19:50:36.571Z,86.21
2023-05-23T19:53:03.576Z,87.92
2023-05-23T19:55:30.705Z,87.60
2023-05-23T19:57:57.918Z,85.75
2023-05-23T20:00:25.723Z,83.84
2023-05-23T20:02:52.860Z,85.62
2023-05-23T20:05:20.558Z,87.00
2023-05-23T20:07:47.565Z,87.08
2023-05-23T20:10:15.526Z,85.89
2023-05-23T20:12:42.565Z,83.99
2023-05-23T20:15:09.958Z,82.43
2023-05-23T20:17:37.005Z,81.68
2023-05-23T20:20:04.914Z,81.32
2023-05-23T20:22:31.967Z,80.15
2023-05-23T20:24:59.948Z,79.04
2023-05-23T20:27:27.186Z,79.03
2023-05-23T20:29:54.361Z,76.77
2023-05-23T20:32:21.472Z,77.33
2023-05-23T20:34:48.511Z,77.65
2023-05-23T20:37:15.571Z,77.94
2023-05-23T20:39:42.641Z,77.21
2023-05-23T20:42:15.112Z,80.67
2023-05-23T20:44:42.564Z,79.78
2023-05-23T20:47:12.176Z,78.93
2023-05-23T20:49:40.124Z,78.63
2023-05-23T20:52:07.220Z,79.81
2023-05-23T20:54:35.510Z,82.78
2023-05-23T20:57:02.739Z,84.57
2023-05-23T20:59:32.394Z,85.21
2023-05-23T21:01:59.504Z,84.94
2023-05-23T21:04:26.951Z,84.73
2023-05-23T21:06:54.035Z,85.71
2023-05-23T21:09:21.037Z,86.05
2023-05-23T21:11:48.137Z,86.34
2023-05-23T21:14:15.209Z,87.12
2023-05-23T21:16:42.279Z,86.90
2023-05-23T21:19:09.454Z,86.82
2023-05-23T21:21:37.705Z,87.02
2023-05-23T21:24:06.482Z,88.05
2023-05-23T21:26:33.499Z,87.71
2023-05-23T21:29:00.488Z,87.64
2023-05-23T21:31:40.386Z,88.16
2023-05-23T21:34:22.101Z,89.92
2023-05-23T21:36:51.350Z,90.17
2023-05-23T21:39:18.450Z,90.18
2023-05-23T21:41:45.477Z,89.53
2023-05-23T21:44:13.637Z,88.93
2023-05-23T21:46:40.900Z,88.99
2023-05-23T21:49:07.963Z,88.88
2023-05-23T21:51:34.997Z,88.82
2023-05-23T21:54:02.002Z,88.05
2023-05-23T21:56:29.029Z,87.56
2023-05-23T21:58:56.062Z,86.59
2023-05-23T22:01:23.103Z,84.87
2023-05-23T22:03:50.307Z,85.77
2023-05-23T22:06:17.332Z,85.38
2023-05-23T22:08:46.333Z,85.73
2023-05-23T22:11:13.435Z,85.79
2023-05-23T22:13:40.885Z,86.70
2023-05-23T22:16:08.126Z,87.04
2023-05-23T22:18:51.125Z,87.10
2023-05-23T22:21:19.048Z,86.61
2023-05-23T22:23:46.321Z,86.56
2023-05-23T22:26:14.129Z,85.29
2023-05-23T22:28:41.201Z,87.96
2023-05-23T22:31:09.860Z,87.83
2023-05-23T22:33:39.181Z,87.76
2023-05-23T22:36:06.966Z,86.74
2023-05-23T22:38:34.400Z,87.07
2023-05-23T22:41:01.481Z,87.18
2023-05-23T22:43:29.219Z,87.63
2023-05-23T22:45:56.976Z,87.29
2023-05-23T22:48:28.125Z,86.68
2023-05-23T22:50:55.236Z,87.00
2023-05-23T22:53:24.888Z,87.62
2023-05-23T22:55:51.907Z,87.89
2023-05-23T22:58:18.962Z,87.56
2023-05-23T23:00:46.158Z,87.46
2023-05-23T23:03:15.442Z,88.12
2023-05-23T23:05:42.915Z,88.57
2023-05-23T23:08:10.061Z,88.93
2023-05-23T23:10:37.086Z,89.19
2023-05-23T23:13:04.143Z,89.42
2023-05-23T23:15:34.046Z,90.20
2023-05-23T23:18:01.388Z,91.79
2023-05-23T23:20:28.757Z,92.77
2023-05-23T23:22:56.090Z,92.81
2023-05-23T23:25:23.831Z,93.46
2023-05-23T23:27:51.017Z,93.34
2023-05-23T23:30:18.022Z,93.53
2023-05-23T23:32:44.974Z,94.09
2023-05-23T23:35:12.023Z,94.76
2023-05-23T23:37:39.121Z,94.74
2023-05-23T23:40:08.493Z,95.21
2023-05-23T23:42:35.533Z,95.40
2023-05-23T23:45:02.823Z,95.91
2023-05-23T23:47:29.883Z,95.95
2023-05-23T23:49:56.933Z,96.62
2023-05-23T23:52:24.001Z,96.82
2023-05-23T23:54:51.055Z,97.06
2023-05-23T23:57:18.028Z,98.15
2023-05-23T23:59:45.324Z,98.92
